createdAt,value
2022-12-05T00:01:31.822Z,33.67
2022-12-05T00:04:04.288Z,32.45
2022-12-05T00:06:35.206Z,30.67
2022-12-05T00:09:06.282Z,32.47
2022-12-05T00:11:38.288Z,34.95
2022-12-05T00:14:10.222Z,30.23
2022-12-05T00:16:43.023Z,31.42
2022-12-05T00:19:15.338Z,35.28
2022-12-05T00:21:45.369Z,32.22
2022-12-05T00:24:16.866Z,36.13
2022-12-05T00:26:46.482Z,29.50
2022-12-05T00:29:16.195Z,31.85
2022-12-05T00:31:47.014Z,32.80
2022-12-05T00:34:17.442Z,30.13
2022-12-05T00:36:47.004Z,28.48
2022-12-05T00:39:17.200Z,32.00
2022-12-05T00:41:46.541Z,31.48
2022-12-05T00:44:16.539Z,29.65
2022-12-05T00:46:47.317Z,30.23
2022-12-05T00:49:17.387Z,31.77
2022-12-05T00:51:47.017Z,30.33
2022-12-05T00:54:18.807Z,29.25
2022-12-05T00:59:19.888Z,31.63
2022-12-05T01:01:52.744Z,30.20
2022-12-05T01:04:26.767Z,35.75
2022-12-05T01:06:57.726Z,33.95
2022-12-05T01:09:28.132Z,34.72
2022-12-05T01:11:57.650Z,32.70
2022-12-05T01:14:28.718Z,30.52
2022-12-05T01:16:59.620Z,34.42
2022-12-05T01:19:31.542Z,32.83
2022-12-05T01:22:01.677Z,33.60
2022-12-05T01:24:31.878Z,34.75
2022-12-05T01:27:01.139Z,34.90
2022-12-05T01:29:31.139Z,33.50
2022-12-05T01:32:02.068Z,34.72
2022-12-05T01:34:32.562Z,30.98
2022-12-05T01:37:02.023Z,31.15
2022-12-05T01:39:31.643Z,30.70
2022-12-05T01:42:00.876Z,31.88
2022-12-05T01:45:03.034Z,31.42
2022-12-05T01:47:37.337Z,32.65
2022-12-05T01:50:08.444Z,28.80
2022-12-05T01:52:38.635Z,30.58
2022-12-05T01:57:42.380Z,29.67
2022-12-05T02:00:15.678Z,29.30
2022-12-05T02:02:52.121Z,32.30
2022-12-05T02:05:26.617Z,32.40
2022-12-05T02:07:56.687Z,29.40
2022-12-05T02:10:28.298Z,30.45
2022-12-05T02:12:59.751Z,28.80
2022-12-05T02:15:43.241Z,33.38
2022-12-05T02:18:27.000Z,32.25
2022-12-05T02:21:20.677Z,31.05
2022-12-05T02:24:15.172Z,34.35
2022-12-05T02:27:11.584Z,30.83
2022-12-05T02:30:06.252Z,30.20
2022-12-05T02:32:52.346Z,30.15
2022-12-05T02:35:34.806Z,30.20
2022-12-05T02:38:17.112Z,30.65
2022-12-05T02:40:55.307Z,30.33
2022-12-05T02:43:31.603Z,31.00
2022-12-05T02:46:05.870Z,27.95
2022-12-05T02:48:37.595Z,29.13
2022-12-05T02:51:09.047Z,31.73
2022-12-05T02:53:41.196Z,30.75
2022-12-05T02:56:11.695Z,31.05
2022-12-05T03:01:17.181Z,27.88
2022-12-05T03:03:47.495Z,30.55
2022-12-05T03:06:21.518Z,27.02
2022-12-05T03:08:56.667Z,30.40
2022-12-05T03:11:26.253Z,26.50
2022-12-05T03:13:59.939Z,31.10
2022-12-05T03:16:33.558Z,27.85
2022-12-05T03:19:09.142Z,28.30
2022-12-05T03:21:42.749Z,25.77
2022-12-05T03:24:15.658Z,24.42
2022-12-05T03:26:52.748Z,25.60
2022-12-05T03:29:28.357Z,27.73
2022-12-05T03:32:09.649Z,27.40
2022-12-05T03:34:50.031Z,27.50
2022-12-05T03:37:30.124Z,25.98
2022-12-05T03:40:08.237Z,27.33
2022-12-05T03:42:40.874Z,25.80
2022-12-05T03:45:13.410Z,27.52
2022-12-05T03:47:50.319Z,28.13
2022-12-05T03:50:24.960Z,29.38
2022-12-05T03:55:57.335Z,27.77
2022-12-05T03:58:33.236Z,30.35
2022-12-05T04:01:05.216Z,29.00
2022-12-05T04:03:42.385Z,30.60
2022-12-05T04:06:19.104Z,28.30
2022-12-05T04:08:53.201Z,29.58
2022-12-05T04:11:27.018Z,29.20
2022-12-05T04:14:01.760Z,30.98
2022-12-05T04:16:53.840Z,28.77
2022-12-05T04:19:29.822Z,23.75
2022-12-05T04:21:58.923Z,25.88
2022-12-05T04:24:49.622Z,24.73
2022-12-05T04:27:27.232Z,28.70
2022-12-05T04:30:03.056Z,27.83
2022-12-05T04:32:39.982Z,27.42
2022-12-05T04:35:17.045Z,27.10
2022-12-05T04:37:50.544Z,28.45
2022-12-05T04:40:25.006Z,28.95
2022-12-05T04:42:56.818Z,28.70
2022-12-05T04:50:33.201Z,27.02
2022-12-05T04:53:04.668Z,26.17
2022-12-05T04:55:37.026Z,28.52
2022-12-05T04:58:10.962Z,25.13
2022-12-05T05:00:47.251Z,31.48
2022-12-05T05:03:23.183Z,27.58
2022-12-05T05:05:57.391Z,26.95
2022-12-05T05:08:29.855Z,29.23
2022-12-05T05:11:10.103Z,26.88
2022-12-05T05:13:39.930Z,28.98
2022-12-05T05:16:10.555Z,31.92
2022-12-05T05:18:40.676Z,29.67
2022-12-05T05:21:17.649Z,29.02
2022-12-05T05:23:47.869Z,30.33
2022-12-05T05:26:17.995Z,27.98
2022-12-05T05:28:48.195Z,28.15
2022-12-05T05:31:19.151Z,27.90
2022-12-05T05:33:51.024Z,29.33
2022-12-05T05:38:54.320Z,26.70
2022-12-05T05:41:25.358Z,30.65
2022-12-05T05:43:55.608Z,30.70
2022-12-05T05:46:27.840Z,32.60
2022-12-05T05:48:58.161Z,31.65
2022-12-05T05:51:30.592Z,28.00
2022-12-05T05:54:01.224Z,29.40
2022-12-05T05:56:31.635Z,26.35
2022-12-05T05:59:03.339Z,26.27
2022-12-05T06:01:33.478Z,28.17
2022-12-05T06:04:03.954Z,27.73
2022-12-05T06:06:35.203Z,29.13
2022-12-05T06:09:07.597Z,27.98
2022-12-05T06:11:37.060Z,23.23
2022-12-05T06:14:06.890Z,29.20
2022-12-05T06:16:36.190Z,28.08
2022-12-05T06:19:06.286Z,27.17
2022-12-05T06:21:37.004Z,25.40
2022-12-05T06:24:07.766Z,25.92
2022-12-05T06:26:37.259Z,26.05
2022-12-05T06:29:07.315Z,27.55
2022-12-05T06:31:36.625Z,27.65
2022-12-05T06:34:06.922Z,27.75
2022-12-05T06:36:37.906Z,26.05
2022-12-05T06:39:08.075Z,26.52
2022-12-05T06:41:37.527Z,25.75
2022-12-05T06:44:07.803Z,24.10
2022-12-05T06:46:37.239Z,28.70
2022-12-05T06:49:07.194Z,29.10
2022-12-05T06:51:38.779Z,28.27
2022-12-05T06:54:08.739Z,29.13
2022-12-05T06:56:38.174Z,26.88
2022-12-05T06:59:08.512Z,27.42
2022-12-05T07:01:39.736Z,25.27
2022-12-05T07:04:13.734Z,24.95
2022-12-05T07:06:50.301Z,24.52
2022-12-05T07:09:22.283Z,26.38
2022-12-05T07:11:52.528Z,23.30
2022-12-05T07:14:46.266Z,22.25
2022-12-05T07:17:12.198Z,26.88
2022-12-05T07:19:42.095Z,24.05
2022-12-05T07:22:15.909Z,24.70
2022-12-05T07:24:46.527Z,26.60
2022-12-05T07:27:20.588Z,24.58
2022-12-05T07:29:53.544Z,26.02
2022-12-05T07:32:22.807Z,24.48
2022-12-05T07:34:55.518Z,23.27
2022-12-05T07:37:26.730Z,25.52
2022-12-05T07:39:56.695Z,25.95
2022-12-05T07:42:26.197Z,26.15
2022-12-05T07:44:56.138Z,25.30
2022-12-05T07:47:25.592Z,24.42
2022-12-05T07:49:55.753Z,22.70
2022-12-05T07:52:26.823Z,24.48
2022-12-05T07:54:56.815Z,23.63
2022-12-05T07:57:26.443Z,23.83
2022-12-05T07:59:56.554Z,23.38
2022-12-05T08:02:26.218Z,24.60
2022-12-05T08:04:55.982Z,26.60
2022-12-05T08:07:26.813Z,22.48
2022-12-05T08:09:56.765Z,24.00
2022-12-05T08:12:26.264Z,22.48
2022-12-05T08:14:56.075Z,22.08
2022-12-05T08:17:25.578Z,22.98
2022-12-05T08:19:56.638Z,23.10
2022-12-05T08:22:27.660Z,24.85
2022-12-05T08:24:57.499Z,26.38
2022-12-05T08:27:26.954Z,22.95
2022-12-05T08:29:57.312Z,23.45
2022-12-05T08:32:27.622Z,24.67
2022-12-05T08:34:57.939Z,25.23
2022-12-05T08:37:28.810Z,23.10
2022-12-05T08:39:59.002Z,23.65
2022-12-05T08:42:29.014Z,24.08
2022-12-05T08:44:58.926Z,23.20
2022-12-05T08:47:29.441Z,25.05
2022-12-05T08:50:01.118Z,23.98
2022-12-05T08:52:32.085Z,26.48
2022-12-05T08:55:02.174Z,25.17
2022-12-05T08:57:31.618Z,23.80
2022-12-05T09:00:01.772Z,24.70
2022-12-05T09:02:31.196Z,24.58
2022-12-05T09:05:19.138Z,26.27
2022-12-05T09:07:52.087Z,25.70
2022-12-05T09:10:22.229Z,25.67
2022-12-05T09:12:53.236Z,23.48
2022-12-05T09:15:23.635Z,29.42
2022-12-05T09:17:52.928Z,24.65
2022-12-05T09:20:22.802Z,28.88
2022-12-05T09:22:54.332Z,27.92
2022-12-05T09:25:23.978Z,27.73
2022-12-05T09:27:55.103Z,27.73
2022-12-05T09:30:24.753Z,26.63
2022-12-05T09:32:54.232Z,27.25
2022-12-05T09:35:24.347Z,29.43
2022-12-05T09:37:57.375Z,26.42
2022-12-05T09:40:27.083Z,26.83
2022-12-05T09:43:04.724Z,26.55
2022-12-05T09:45:39.552Z,28.52
2022-12-05T09:48:12.985Z,26.60
2022-12-05T09:50:48.728Z,27.38
2022-12-05T09:53:28.952Z,29.42
2022-12-05T09:56:05.578Z,26.48
2022-12-05T09:58:44.611Z,27.75
2022-12-05T10:01:35.154Z,30.83
2022-12-05T10:04:23.727Z,26.80
2022-12-05T10:07:02.471Z,22.48
2022-12-05T10:09:56.204Z,27.70
2022-12-05T10:12:43.573Z,25.40
2022-12-05T10:15:18.040Z,27.88
2022-12-05T10:17:54.068Z,24.65
2022-12-05T10:20:29.300Z,24.30
2022-12-05T10:23:04.204Z,24.02
2022-12-05T10:25:36.687Z,25.52
2022-12-05T10:28:13.347Z,23.20
2022-12-05T10:30:44.909Z,24.15
2022-12-05T10:33:19.715Z,24.40
2022-12-05T10:35:53.975Z,25.95
2022-12-05T10:38:27.698Z,24.88
2022-12-05T10:41:02.255Z,24.42
2022-12-05T10:43:34.148Z,24.08
2022-12-05T10:46:07.243Z,25.98
2022-12-05T10:48:40.843Z,24.30
2022-12-05T10:51:16.993Z,23.83
2022-12-05T10:53:49.937Z,26.38
2022-12-05T10:56:43.420Z,21.98
2022-12-05T10:59:14.472Z,26.05
2022-12-05T11:01:49.060Z,24.50
2022-12-05T11:04:31.319Z,22.67
2022-12-05T11:07:02.832Z,21.35
2022-12-05T11:09:34.883Z,21.92
2022-12-05T11:12:21.243Z,22.05
2022-12-05T11:15:03.209Z,22.17
2022-12-05T11:17:36.012Z,23.90
2022-12-05T11:20:35.620Z,22.25
2022-12-05T11:23:23.212Z,26.33
2022-12-05T11:25:53.802Z,26.42
2022-12-05T11:28:36.759Z,26.17
2022-12-05T11:31:09.516Z,26.15
2022-12-05T11:33:38.878Z,24.17
2022-12-05T11:38:43.910Z,23.25
2022-12-05T11:41:41.080Z,23.60
2022-12-05T11:44:41.646Z,24.35
2022-12-05T11:50:06.422Z,21.92
2022-12-05T11:52:48.636Z,21.43
2022-12-05T11:55:20.505Z,20.85
2022-12-05T11:58:17.951Z,22.50
2022-12-05T12:00:59.606Z,26.55
2022-12-05T12:03:55.384Z,23.38
2022-12-05T12:06:30.991Z,23.75
2022-12-05T12:09:25.564Z,29.38
2022-12-05T12:12:02.420Z,26.30
2022-12-05T12:14:43.215Z,25.30
2022-12-05T12:17:22.791Z,25.98
2022-12-05T12:20:14.650Z,29.55
2022-12-05T12:22:57.065Z,29.40
2022-12-05T12:25:35.311Z,27.67
2022-12-05T12:28:20.732Z,28.10
2022-12-05T12:31:03.967Z,28.40
2022-12-05T12:33:38.191Z,27.70
2022-12-05T12:36:17.533Z,26.65
2022-12-05T12:39:19.154Z,29.52
2022-12-05T12:42:03.286Z,26.60
2022-12-05T12:44:55.230Z,27.85
2022-12-05T12:47:37.864Z,29.23
2022-12-05T12:50:16.363Z,31.20
2022-12-05T12:53:01.742Z,28.25
2022-12-05T12:55:40.504Z,27.83
2022-12-05T12:58:21.745Z,26.85
2022-12-05T13:01:02.888Z,26.08
2022-12-05T13:03:39.112Z,29.50
2022-12-05T13:06:18.098Z,26.50
2022-12-05T13:08:52.791Z,28.75
2022-12-05T13:11:23.985Z,25.83
2022-12-05T13:13:57.626Z,29.38
2022-12-05T13:16:30.189Z,27.15
2022-12-05T13:19:01.534Z,28.60
2022-12-05T13:21:32.881Z,29.00
2022-12-05T13:24:03.971Z,26.35
2022-12-05T13:26:36.318Z,27.90
2022-12-05T13:29:06.976Z,29.65
2022-12-05T13:31:38.808Z,29.17
2022-12-05T13:34:30.992Z,31.92
2022-12-05T13:37:29.377Z,29.35
2022-12-05T13:40:17.281Z,29.67
2022-12-05T13:42:48.170Z,31.52
2022-12-05T13:45:20.367Z,31.40
2022-12-05T13:47:57.238Z,28.02
2022-12-05T13:50:32.513Z,30.00
2022-12-05T13:53:06.757Z,26.45
2022-12-05T13:55:39.539Z,25.75
2022-12-05T13:58:42.787Z,28.98
2022-12-05T14:01:47.716Z,29.00
2022-12-05T14:04:53.580Z,32.72
2022-12-05T14:07:41.573Z,28.48
2022-12-05T14:10:16.875Z,32.28
2022-12-05T14:12:52.405Z,29.63
2022-12-05T14:15:34.108Z,31.55
2022-12-05T14:18:15.629Z,31.20
2022-12-05T14:21:08.020Z,32.50
2022-12-05T14:23:57.834Z,30.25
2022-12-05T14:26:45.944Z,30.40
2022-12-05T14:29:40.875Z,31.65
2022-12-05T14:32:21.706Z,33.10
2022-12-05T14:34:59.580Z,29.63
2022-12-05T14:37:31.952Z,30.05
2022-12-05T14:40:04.258Z,29.88
2022-12-05T14:42:39.913Z,32.22
2022-12-05T14:45:29.664Z,29.98
2022-12-05T14:48:00.328Z,30.83
2022-12-05T14:53:37.327Z,29.13
2022-12-05T14:56:18.183Z,30.85
2022-12-05T14:59:08.063Z,32.70
2022-12-05T15:01:45.582Z,29.67
2022-12-05T15:04:21.782Z,30.45
2022-12-05T15:06:55.943Z,34.08
2022-12-05T15:09:41.619Z,31.42
2022-12-05T15:12:17.719Z,32.65
2022-12-05T15:14:55.476Z,32.78
2022-12-05T15:17:30.340Z,32.03
2022-12-05T15:20:05.966Z,33.65
2022-12-05T15:22:39.281Z,28.80
2022-12-05T15:25:25.336Z,32.20
2022-12-05T15:28:01.299Z,32.60
2022-12-05T15:30:33.909Z,33.45
2022-12-05T15:33:04.085Z,31.70
2022-12-05T15:35:35.803Z,29.35
2022-12-05T15:38:10.962Z,31.30
2022-12-05T15:40:40.878Z,30.80
2022-12-05T15:43:31.762Z,34.47
2022-12-05T15:46:24.414Z,32.45
2022-12-05T15:48:55.211Z,30.13
2022-12-05T15:51:32.758Z,31.57
2022-12-05T15:54:09.921Z,31.20
2022-12-05T15:56:44.136Z,33.42
2022-12-05T15:59:20.527Z,33.05
2022-12-05T16:01:54.764Z,36.03
2022-12-05T16:04:30.474Z,30.60
2022-12-05T16:07:02.899Z,34.20
2022-12-05T16:09:35.582Z,33.53
2022-12-05T16:12:07.634Z,34.40
2022-12-05T16:17:38.902Z,32.53
2022-12-05T16:20:29.745Z,33.65
2022-12-05T16:23:02.209Z,31.33
2022-12-05T16:25:34.074Z,35.53
2022-12-05T16:28:16.085Z,33.42
2022-12-05T16:30:57.547Z,32.50
2022-12-05T16:33:30.165Z,32.28
2022-12-05T16:36:10.144Z,33.97
2022-12-05T16:38:41.211Z,32.88
2022-12-05T16:41:11.391Z,30.52
2022-12-05T16:43:45.566Z,33.65
2022-12-05T16:46:44.416Z,31.42
2022-12-05T16:49:36.430Z,35.15
2022-12-05T16:52:16.966Z,32.50
2022-12-05T16:54:48.559Z,33.83
2022-12-05T16:57:19.420Z,32.67
2022-12-05T16:59:57.902Z,35.17
2022-12-05T17:02:30.453Z,35.83
2022-12-05T17:05:04.397Z,33.08
2022-12-05T17:07:34.842Z,32.50
2022-12-05T17:10:04.170Z,31.50
2022-12-05T17:12:34.664Z,32.03
2022-12-05T17:15:04.214Z,32.70
2022-12-05T17:17:33.993Z,33.85
2022-12-05T17:20:05.811Z,32.47
2022-12-05T17:22:35.611Z,37.08
2022-12-05T17:25:05.000Z,31.65
2022-12-05T17:27:34.686Z,33.88
2022-12-05T17:30:03.999Z,36.40
2022-12-05T17:32:34.636Z,33.33
2022-12-05T17:35:16.574Z,31.52
2022-12-05T17:37:46.475Z,34.00
2022-12-05T17:40:15.904Z,34.00
2022-12-05T17:42:45.792Z,33.08
2022-12-05T17:45:17.536Z,34.97
2022-12-05T17:47:47.589Z,35.78
2022-12-05T17:50:20.286Z,31.65
2022-12-05T17:52:50.923Z,32.03
2022-12-05T17:55:22.057Z,31.77
2022-12-05T17:57:52.397Z,37.35
2022-12-05T18:00:23.097Z,34.17
2022-12-05T18:05:24.234Z,35.22
2022-12-05T18:07:54.401Z,32.53
2022-12-05T18:10:24.926Z,37.42
2022-12-05T18:12:54.926Z,39.13
2022-12-05T18:15:24.220Z,37.28
2022-12-05T18:17:55.852Z,34.95
2022-12-05T18:20:27.757Z,36.63
2022-12-05T18:22:58.075Z,35.17
2022-12-05T18:25:27.728Z,37.08
2022-12-05T18:27:57.377Z,39.35
2022-12-05T18:30:26.924Z,38.33
2022-12-05T18:32:57.300Z,39.88
2022-12-05T18:35:42.234Z,38.22
2022-12-05T18:38:13.143Z,41.05
2022-12-05T18:40:42.503Z,42.17
2022-12-05T18:43:12.400Z,40.55
2022-12-05T18:45:42.085Z,41.30
2022-12-05T18:51:11.515Z,41.38
2022-12-05T18:53:41.629Z,40.55
2022-12-05T18:56:22.335Z,44.97
2022-12-05T18:58:58.372Z,43.08
2022-12-05T19:01:29.605Z,39.70
2022-12-05T19:04:00.492Z,42.63
2022-12-05T19:06:33.126Z,43.05
2022-12-05T19:09:05.130Z,40.20
2022-12-05T19:11:34.989Z,40.45
2022-12-05T19:14:06.355Z,46.33
2022-12-05T19:16:36.708Z,43.67
2022-12-05T19:19:09.141Z,45.35
2022-12-05T19:21:39.956Z,43.78
2022-12-05T19:24:12.465Z,44.10
2022-12-05T19:26:42.716Z,40.15
2022-12-05T19:29:14.203Z,43.60
2022-12-05T19:31:43.985Z,41.55
2022-12-05T19:34:14.677Z,37.95
2022-12-05T19:36:46.863Z,41.08
2022-12-05T19:39:19.860Z,40.13
2022-12-05T19:41:49.932Z,40.95
2022-12-05T19:44:20.007Z,44.00
2022-12-05T19:46:50.906Z,43.17
2022-12-05T19:49:20.745Z,40.92
2022-12-05T19:51:52.823Z,43.63
2022-12-05T19:54:24.454Z,43.80
2022-12-05T19:56:58.542Z,42.97
2022-12-05T19:59:28.305Z,45.47
2022-12-05T20:01:57.896Z,40.92
2022-12-05T20:04:28.239Z,41.42
2022-12-05T20:06:59.038Z,45.72
2022-12-05T20:09:29.003Z,42.42
2022-12-05T20:11:58.272Z,44.47
2022-12-05T20:14:28.339Z,46.33
2022-12-05T20:16:57.992Z,45.55
2022-12-05T20:19:28.353Z,44.97
2022-12-05T20:21:59.191Z,42.78
2022-12-05T20:24:29.156Z,39.63
2022-12-05T20:26:58.512Z,46.10
2022-12-05T20:29:28.315Z,47.30
2022-12-05T20:31:58.773Z,45.80
2022-12-05T20:34:28.504Z,54.03
2022-12-05T20:36:59.208Z,39.67
2022-12-05T20:41:59.352Z,43.25
2022-12-05T20:44:29.655Z,48.92
2022-12-05T20:46:58.991Z,49.00
2022-12-05T20:49:28.658Z,43.60
2022-12-05T20:51:59.419Z,43.00
2022-12-05T20:54:29.795Z,40.17
2022-12-05T20:56:59.305Z,37.63
2022-12-05T20:59:29.024Z,39.90
2022-12-05T21:01:58.826Z,37.97
2022-12-05T21:04:28.968Z,37.80
2022-12-05T21:06:59.844Z,35.63
2022-12-05T21:09:32.043Z,35.65
2022-12-05T21:12:01.450Z,35.15
2022-12-05T21:14:32.113Z,33.90
2022-12-05T21:17:01.730Z,36.92
2022-12-05T21:19:31.605Z,36.20
2022-12-05T21:22:02.467Z,36.83
2022-12-05T21:24:32.745Z,42.55
2022-12-05T21:27:02.193Z,43.28
2022-12-05T21:29:32.395Z,41.63
2022-12-05T21:32:01.957Z,43.15
2022-12-05T21:34:31.840Z,43.90
2022-12-05T21:37:02.597Z,48.20
2022-12-05T21:39:32.911Z,51.13
2022-12-05T21:42:02.542Z,51.45
2022-12-05T21:44:32.398Z,51.15
2022-12-05T21:47:01.881Z,56.15
2022-12-05T21:49:31.830Z,50.13
2022-12-05T21:52:02.959Z,53.63
2022-12-05T21:54:32.958Z,54.70
2022-12-05T21:57:02.220Z,55.15
2022-12-05T21:59:32.931Z,55.25
2022-12-05T22:02:02.424Z,54.65
2022-12-05T22:04:32.465Z,55.63
2022-12-05T22:07:03.214Z,54.35
2022-12-05T22:09:32.983Z,53.58
2022-12-05T22:12:02.390Z,59.13
2022-12-05T22:14:32.476Z,54.50
2022-12-05T22:17:01.960Z,55.80
2022-12-05T22:19:31.822Z,62.85
2022-12-05T22:22:02.580Z,64.03
2022-12-05T22:24:32.400Z,61.25
2022-12-05T22:27:01.934Z,52.72
2022-12-05T22:29:31.754Z,51.70
2022-12-05T22:32:01.001Z,51.60
2022-12-05T22:34:31.227Z,55.80
2022-12-05T22:37:01.040Z,55.55
2022-12-05T22:39:32.204Z,56.70
2022-12-05T22:42:01.771Z,51.65
2022-12-05T22:44:31.539Z,57.67
2022-12-05T22:47:00.916Z,56.28
2022-12-05T22:49:30.949Z,54.63
2022-12-05T22:52:00.211Z,50.63
2022-12-05T22:54:32.351Z,54.08
2022-12-05T22:57:02.070Z,51.40
2022-12-05T22:59:32.330Z,50.35
2022-12-05T23:02:01.604Z,49.42
2022-12-05T23:04:31.447Z,51.95
2022-12-05T23:07:00.944Z,46.90
2022-12-05T23:09:32.155Z,46.58
2022-12-05T23:12:01.484Z,44.45
2022-12-05T23:14:31.341Z,50.88
2022-12-05T23:17:00.853Z,49.33
2022-12-05T23:19:31.014Z,48.00
2022-12-05T23:22:00.391Z,56.97
2022-12-05T23:24:31.564Z,46.20
2022-12-05T23:27:00.828Z,47.40
2022-12-05T23:29:30.476Z,47.80
2022-12-05T23:32:00.075Z,45.53
2022-12-05T23:34:30.119Z,47.45
2022-12-05T23:36:59.771Z,49.03
2022-12-05T23:39:31.167Z,44.28
2022-12-05T23:44:30.316Z,52.60
2022-12-05T23:46:59.765Z,49.97
2022-12-05T23:49:30.085Z,50.30
2022-12-05T23:51:59.836Z,47.50
2022-12-05T23:54:31.566Z,44.42
2022-12-05T23:59:30.800Z,47.67
